Time;durP1;ratioP1;P1;durP2;ratioP2;P2;SDS_P1;SDS_P2;PMS_P1;PMS_P2;Temp;Humidity;BMP_temperature;BMP_pressure;BME280_temperature;BME280_humidity;BME280_pressure;Samples;Min_cycle;Max_cycle;Signal;HPM_P1;HPM_P2
2021/05/20 00:00:29;;;;;;;11.45;7.50;;;;;;;;;;10289373;28;20072;-67
2021/05/20 00:05:25;;;;;;;13.57;7.28;;;;;;;;;;10306061;28;20068;-65
2021/05/20 00:10:22;;;;;;;12.02;6.82;;;;;;;;;;10301366;28;20121;-66
2021/05/20 00:15:18;;;;;;;9.45;5.68;;;;;;;;;;10303326;28;20080;-65
2021/05/20 00:20:15;;;;;;;7.88;5.57;;;;;;;;;;10309568;28;20049;-66
2021/05/20 00:25:12;;;;;;;10.40;5.95;;;;;;;;;;10298927;28;20103;-67
2021/05/20 00:30:12;;;;;;;9.00;5.40;;;;;;;;;;10304119;28;20044;-66
2021/05/20 00:35:08;;;;;;;7.85;5.57;;;;;;;;;;10303610;28;20041;-66
2021/05/20 00:40:05;;;;;;;7.63;5.47;;;;;;;;;;10309916;28;20670;-69
2021/05/20 00:45:03;;;;;;;7.35;5.13;;;;;;;;;;10299537;28;20068;-69
2021/05/20 00:50:00;;;;;;;6.47;3.97;;;;;;;;;;10300137;28;20044;-70
2021/05/20 00:54:58;;;;;;;6.40;4.00;;;;;;;;;;10305084;28;20071;-70
2021/05/20 00:59:54;;;;;;;6.03;3.42;;;;;;;;;;10301592;28;20453;-69
2021/05/20 01:04:50;;;;;;;6.78;3.90;;;;;;;;;;10294056;28;20095;-68
2021/05/20 01:09:46;;;;;;;6.75;4.18;;;;;;;;;;10292102;28;20048;-68
2021/05/20 01:14:43;;;;;;;9.15;3.72;;;;;;;;;;10300855;28;20072;-66
2021/05/20 01:19:41;;;;;;;8.20;3.60;;;;;;;;;;10301326;28;20056;-69
2021/05/20 01:24:39;;;;;;;6.78;3.53;;;;;;;;;;10290900;28;20057;-69
2021/05/20 01:29:37;;;;;;;5.65;3.25;;;;;;;;;;10307171;28;20049;-68
2021/05/20 01:34:34;;;;;;;5.15;3.42;;;;;;;;;;10295223;28;20414;-69
2021/05/20 01:39:30;;;;;;;5.82;3.10;;;;;;;;;;10296419;28;20099;-70
2021/05/20 01:44:27;;;;;;;5.97;3.20;;;;;;;;;;10299765;28;20105;-68
2021/05/20 01:49:23;;;;;;;8.15;3.70;;;;;;;;;;10303653;28;20102;-70
2021/05/20 01:54:19;;;;;;;7.60;4.00;;;;;;;;;;10297023;28;20040;-70
2021/05/20 01:59:16;;;;;;;6.10;2.97;;;;;;;;;;10291904;28;20109;-69
2021/05/20 02:04:12;;;;;;;5.63;3.17;;;;;;;;;;10297256;28;20045;-70
2021/05/20 02:09:08;;;;;;;5.97;3.10;;;;;;;;;;10298089;28;20109;-70
2021/05/20 02:14:05;;;;;;;5.22;2.92;;;;;;;;;;10292788;28;20128;-67
2021/05/20 02:19:01;;;;;;;6.22;3.20;;;;;;;;;;10294615;28;20045;-72
2021/05/20 02:23:58;;;;;;;5.07;3.05;;;;;;;;;;10296982;28;20049;-71
2021/05/20 02:28:54;;;;;;;4.07;2.53;;;;;;;;;;10293379;28;20041;-71
2021/05/20 02:33:50;;;;;;;6.88;3.45;;;;;;;;;;10296011;28;20059;-69
2021/05/20 02:38:47;;;;;;;5.35;3.00;;;;;;;;;;10296810;28;20312;-69
2021/05/20 02:43:43;;;;;;;4.63;2.97;;;;;;;;;;10297071;28;20048;-69
2021/05/20 02:48:39;;;;;;;8.50;3.42;;;;;;;;;;10289461;28;20115;-69
2021/05/20 02:53:36;;;;;;;4.65;2.65;;;;;;;;;;10297738;28;20048;-69
2021/05/20 02:58:32;;;;;;;4.57;2.55;;;;;;;;;;10298701;28;20511;-69
2021/05/20 03:03:28;;;;;;;5.05;3.25;;;;;;;;;;10285491;28;20049;-69
2021/05/20 03:08:24;;;;;;;6.72;3.75;;;;;;;;;;10298001;28;20057;-69
2021/05/20 03:13:21;;;;;;;6.43;2.78;;;;;;;;;;10291467;28;20044;-69
2021/05/20 03:18:17;;;;;;;5.82;3.55;;;;;;;;;;10299663;28;20494;-69
2021/05/20 03:23:13;;;;;;;5.72;3.63;;;;;;;;;;10303141;28;20036;-68
2021/05/20 03:28:10;;;;;;;6.40;3.05;;;;;;;;;;10300630;28;20037;-69
2021/05/20 03:33:06;;;;;;;8.05;3.75;;;;;;;;;;10293286;28;20044;-69
2021/05/20 03:38:03;;;;;;;5.72;3.80;;;;;;;;;;10306646;28;20040;-70
2021/05/20 03:42:59;;;;;;;7.63;5.10;;;;;;;;;;10311211;28;20040;-69
2021/05/20 03:47:56;;;;;;;8.60;5.93;;;;;;;;;;10305534;28;20040;-70
2021/05/20 03:52:52;;;;;;;8.32;5.10;;;;;;;;;;10303415;28;20071;-70
2021/05/20 03:57:48;;;;;;;9.43;5.07;;;;;;;;;;10297589;28;20057;-70
2021/05/20 04:02:45;;;;;;;8.40;5.75;;;;;;;;;;10296275;28;20128;-65
2021/05/20 04:07:41;;;;;;;9.20;5.75;;;;;;;;;;10305720;28;20094;-66
2021/05/20 04:12:37;;;;;;;10.07;6.85;;;;;;;;;;10302585;28;20045;-66
2021/05/20 04:17:34;;;;;;;12.32;8.52;;;;;;;;;;10283834;28;20041;-67
2021/05/20 04:22:30;;;;;;;11.10;7.80;;;;;;;;;;10304252;28;20052;-71
2021/05/20 04:27:26;;;;;;;9.45;7.10;;;;;;;;;;10309670;28;20048;-70
2021/05/20 04:32:23;;;;;;;9.73;7.65;;;;;;;;;;10312805;28;20037;-71
2021/05/20 04:37:19;;;;;;;9.05;7.10;;;;;;;;;;10311141;28;20044;-68
2021/05/20 04:42:16;;;;;;;12.77;7.28;;;;;;;;;;10298840;28;20044;-70
2021/05/20 04:47:13;;;;;;;8.90;7.03;;;;;;;;;;10306514;28;20047;-71
2021/05/20 04:52:09;;;;;;;7.95;6.30;;;;;;;;;;10303623;28;20036;-72
2021/05/20 04:57:06;;;;;;;11.27;7.82;;;;;;;;;;10303465;28;20078;-72
2021/05/20 05:02:02;;;;;;;9.00;7.38;;;;;;;;;;10305767;28;20102;-72
2021/05/20 05:06:58;;;;;;;11.75;7.57;;;;;;;;;;10304258;28;20090;-70
2021/05/20 05:11:55;;;;;;;11.70;8.48;;;;;;;;;;10305457;28;20060;-70
2021/05/20 05:16:51;;;;;;;11.45;8.20;;;;;;;;;;10299451;28;20522;-70
2021/05/20 05:21:47;;;;;;;11.30;8.73;;;;;;;;;;10293195;28;20583;-70
2021/05/20 05:26:44;;;;;;;17.63;9.77;;;;;;;;;;10297965;28;20116;-70
2021/05/20 05:31:40;;;;;;;13.40;9.93;;;;;;;;;;10297282;28;20090;-71
2021/05/20 05:36:36;;;;;;;14.52;8.95;;;;;;;;;;10294844;28;20072;-70
2021/05/20 05:41:33;;;;;;;14.98;9.65;;;;;;;;;;10300899;28;20422;-70
2021/05/20 05:46:29;;;;;;;16.50;9.38;;;;;;;;;;10304974;28;20068;-70
2021/05/20 05:51:30;;;;;;;15.10;10.30;;;;;;;;;;10291886;28;20549;-70
2021/05/20 05:56:26;;;;;;;13.90;10.05;;;;;;;;;;10299882;28;20154;-70
2021/05/20 06:01:43;;;;;;;17.45;11.77;;;;;;;;;;10301415;28;20044;-70
2021/05/20 06:06:42;;;;;;;18.67;11.18;;;;;;;;;;10303582;28;20048;-70
2021/05/20 06:11:38;;;;;;;18.13;11.02;;;;;;;;;;10303375;28;20048;-70
2021/05/20 06:16:35;;;;;;;14.70;11.00;;;;;;;;;;10305701;28;20094;-70
2021/05/20 06:21:32;;;;;;;17.88;12.05;;;;;;;;;;10286916;28;551612;-70
2021/05/20 06:26:29;;;;;;;14.95;9.65;;;;;;;;;;10307531;28;20040;-70
2021/05/20 06:31:25;;;;;;;11.85;7.38;;;;;;;;;;10295817;28;20098;-70
2021/05/20 06:36:23;;;;;;;13.23;7.88;;;;;;;;;;10298794;28;20095;-70
2021/05/20 06:41:20;;;;;;;11.45;7.00;;;;;;;;;;10309501;28;20070;-70
2021/05/20 06:46:17;;;;;;;12.68;7.75;;;;;;;;;;10304452;28;20506;-70
2021/05/20 06:51:14;;;;;;;11.65;7.38;;;;;;;;;;10303805;28;20090;-69
2021/05/20 06:56:21;;;;;;;13.40;7.22;;;;;;;;;;10307040;28;20048;-69
2021/05/20 07:01:17;;;;;;;10.07;6.03;;;;;;;;;;10308072;28;20666;-70
2021/05/20 07:06:14;;;;;;;10.35;5.85;;;;;;;;;;10308527;28;20562;-69
2021/05/20 07:11:11;;;;;;;10.85;4.90;;;;;;;;;;10311202;28;20043;-69
2021/05/20 07:16:07;;;;;;;7.72;4.85;;;;;;;;;;10307059;28;20080;-69
2021/05/20 07:21:04;;;;;;;8.35;3.53;;;;;;;;;;10306986;28;20516;-71
2021/05/20 07:26:01;;;;;;;6.15;3.33;;;;;;;;;;10315010;28;20440;-69
2021/05/20 07:30:57;;;;;;;7.72;4.78;;;;;;;;;;10313721;28;20064;-69
2021/05/20 07:35:54;;;;;;;10.10;4.57;;;;;;;;;;10302346;28;20048;-69
2021/05/20 07:40:50;;;;;;;6.90;4.40;;;;;;;;;;10300854;28;20060;-69
2021/05/20 07:45:48;;;;;;;7.07;3.35;;;;;;;;;;10314845;28;20041;-71
2021/05/20 07:50:45;;;;;;;8.85;4.07;;;;;;;;;;10312799;28;20494;-69
2021/05/20 07:55:41;;;;;;;9.32;4.60;;;;;;;;;;10304901;28;20114;-69
2021/05/20 08:00:37;;;;;;;10.85;5.40;;;;;;;;;;10301554;28;20131;-70
2021/05/20 08:05:40;;;;;;;9.15;4.90;;;;;;;;;;10311118;28;20414;-69
2021/05/20 08:10:53;;;;;;;6.13;3.90;;;;;;;;;;10299906;28;20094;-69
2021/05/20 08:15:50;;;;;;;6.35;3.60;;;;;;;;;;10303605;28;20048;-69
2021/05/20 08:20:46;;;;;;;8.52;4.28;;;;;;;;;;10306198;28;20040;-69
2021/05/20 08:25:43;;;;;;;6.72;2.20;;;;;;;;;;10306293;28;20044;-69
2021/05/20 08:30:40;;;;;;;5.13;3.38;;;;;;;;;;10300749;28;20101;-69
2021/05/20 08:35:36;;;;;;;4.68;2.00;;;;;;;;;;10300797;28;20510;-68
2021/05/20 08:40:33;;;;;;;4.38;2.20;;;;;;;;;;10293413;28;20116;-68
2021/05/20 08:45:30;;;;;;;3.90;2.20;;;;;;;;;;10309626;28;20881;-68
2021/05/20 08:50:28;;;;;;;5.07;2.35;;;;;;;;;;10308583;28;20387;-69
2021/05/20 08:55:27;;;;;;;9.70;3.30;;;;;;;;;;10310062;28;20514;-68
2021/05/20 09:00:24;;;;;;;5.90;2.38;;;;;;;;;;10307014;28;20044;-68
2021/05/20 09:05:21;;;;;;;6.30;2.22;;;;;;;;;;10309460;28;21570;-68
2021/05/20 09:10:22;;;;;;;5.32;2.60;;;;;;;;;;10306884;28;20482;-69
2021/05/20 09:15:22;;;;;;;4.75;2.15;;;;;;;;;;10309172;28;20757;-69
2021/05/20 09:20:19;;;;;;;5.97;2.60;;;;;;;;;;10303558;28;20106;-69
2021/05/20 09:25:15;;;;;;;5.40;2.17;;;;;;;;;;10307563;28;20464;-69
2021/05/20 09:30:30;;;;;;;5.15;2.30;;;;;;;;;;10307708;28;20436;-69
2021/05/20 09:35:28;;;;;;;7.28;2.67;;;;;;;;;;10300555;28;20127;-68
2021/05/20 09:40:26;;;;;;;4.95;2.25;;;;;;;;;;10295515;28;20122;-69
2021/05/20 09:45:26;;;;;;;7.63;2.72;;;;;;;;;;10307624;28;20048;-69
2021/05/20 09:50:22;;;;;;;7.20;2.38;;;;;;;;;;10306105;28;20055;-69
2021/05/20 09:55:28;;;;;;;5.63;2.88;;;;;;;;;;10306968;28;20490;-69
2021/05/20 10:00:26;;;;;;;8.20;2.85;;;;;;;;;;10320053;28;20044;-70
2021/05/20 10:05:23;;;;;;;6.25;3.45;;;;;;;;;;10306328;28;20052;-69
2021/05/20 10:10:20;;;;;;;6.80;3.70;;;;;;;;;;10303874;28;20041;-70
2021/05/20 10:15:18;;;;;;;6.70;4.40;;;;;;;;;;10307957;28;20094;-71
2021/05/20 10:20:16;;;;;;;7.45;4.15;;;;;;;;;;10303678;28;20083;-70
2021/05/20 10:25:20;;;;;;;5.30;3.45;;;;;;;;;;10296506;28;20570;-70
2021/05/20 10:30:17;;;;;;;8.63;5.55;;;;;;;;;;10301314;28;20040;-70
2021/05/20 10:35:15;;;;;;;7.20;4.85;;;;;;;;;;10301229;28;20049;-70
2021/05/20 10:40:24;;;;;;;6.47;4.20;;;;;;;;;;10303354;28;20064;-70
2021/05/20 10:45:23;;;;;;;5.45;3.08;;;;;;;;;;10299065;28;20089;-70
2021/05/20 10:50:19;;;;;;;5.05;2.60;;;;;;;;;;10309829;28;20480;-70
2021/05/20 10:55:16;;;;;;;6.60;2.78;;;;;;;;;;10303431;28;20036;-70
2021/05/20 11:00:24;;;;;;;4.97;2.70;;;;;;;;;;10301935;28;20052;-70
2021/05/20 11:05:39;;;;;;;4.93;2.80;;;;;;;;;;10308025;28;20176;-69
2021/05/20 11:10:38;;;;;;;6.93;3.28;;;;;;;;;;10305152;28;20068;-69
2021/05/20 11:15:35;;;;;;;5.90;3.25;;;;;;;;;;10299977;28;20506;-72
2021/05/20 11:20:32;;;;;;;5.65;3.40;;;;;;;;;;10302212;28;20061;-69
2021/05/20 11:25:28;;;;;;;7.75;3.55;;;;;;;;;;10302435;28;20083;-69
2021/05/20 11:30:25;;;;;;;7.07;3.58;;;;;;;;;;10300901;28;20052;-70
2021/05/20 11:35:55;;;;;;;6.22;4.90;;;;;;;;;;10300319;28;20060;-70
2021/05/20 11:40:38;;;;;;;9.75;5.28;;;;;;;;;;10298675;28;20091;-70
2021/05/20 11:45:34;;;;;;;8.00;4.85;;;;;;;;;;10310187;28;20048;-69
2021/05/20 11:50:31;;;;;;;6.45;4.40;;;;;;;;;;10307007;28;20127;-70
2021/05/20 11:55:36;;;;;;;5.68;4.38;;;;;;;;;;10293626;28;20079;-70
2021/05/20 12:00:33;;;;;;;7.05;4.22;;;;;;;;;;10304340;28;20053;-71
2021/05/20 12:05:29;;;;;;;6.90;3.78;;;;;;;;;;10310305;28;20040;-71
2021/05/20 12:10:49;;;;;;;8.02;4.28;;;;;;;;;;10309320;28;20114;-70
2021/05/20 12:15:49;;;;;;;5.03;3.75;;;;;;;;;;10308686;28;20126;-71
2021/05/20 12:20:46;;;;;;;7.63;4.22;;;;;;;;;;10301161;28;20113;-71
2021/05/20 12:25:43;;;;;;;6.30;3.53;;;;;;;;;;10315904;28;20222;-71
2021/05/20 12:30:40;;;;;;;7.63;4.60;;;;;;;;;;10315269;28;20064;-71
2021/05/20 12:35:36;;;;;;;5.45;1.88;;;;;;;;;;10313149;28;20410;-70
2021/05/20 12:40:32;;;;;;;7.35;2.70;;;;;;;;;;10313169;28;20060;-71
2021/05/20 12:45:34;;;;;;;8.07;3.10;;;;;;;;;;10313930;28;20040;-71
2021/05/20 12:50:34;;;;;;;7.05;2.67;;;;;;;;;;10308588;28;20505;-71
2021/05/20 12:55:34;;;;;;;4.22;2.42;;;;;;;;;;10309789;28;20050;-71
2021/05/20 13:00:50;;;;;;;6.10;2.70;;;;;;;;;;10284246;28;20045;-71
2021/05/20 13:05:48;;;;;;;5.95;2.60;;;;;;;;;;10301137;28;20091;-71
2021/05/20 13:10:44;;;;;;;5.22;3.00;;;;;;;;;;10306590;28;20048;-71
2021/05/20 13:15:55;;;;;;;6.65;2.63;;;;;;;;;;10307386;28;20048;-71
2021/05/20 13:25:53;;;;;;;6.18;2.80;;;;;;;;;;10309969;28;20071;-71
2021/05/20 13:30:55;;;;;;;10.93;4.05;;;;;;;;;;10308059;28;20732;-71
2021/05/20 13:35:52;;;;;;;6.30;3.17;;;;;;;;;;10309618;28;20049;-70
2021/05/20 13:40:54;;;;;;;5.97;3.47;;;;;;;;;;10298313;28;20691;-70
2021/05/20 13:45:51;;;;;;;6.05;3.92;;;;;;;;;;10305003;28;20036;-70
2021/05/20 13:50:50;;;;;;;6.40;2.45;;;;;;;;;;10301267;28;20045;-70
2021/05/20 13:55:46;;;;;;;3.70;1.98;;;;;;;;;;10305719;28;20048;-70
2021/05/20 14:00:43;;;;;;;6.40;2.92;;;;;;;;;;10298318;28;20490;-70
2021/05/20 14:05:39;;;;;;;6.93;2.60;;;;;;;;;;10305429;28;20044;-70
2021/05/20 14:10:36;;;;;;;4.28;2.25;;;;;;;;;;10304389;28;20052;-70
2021/05/20 14:15:32;;;;;;;5.60;2.70;;;;;;;;;;10303126;28;20044;-70
2021/05/20 14:20:31;;;;;;;4.13;2.30;;;;;;;;;;10304614;28;20045;-70
2021/05/20 14:25:29;;;;;;;5.78;3.00;;;;;;;;;;10309260;28;20559;-70
2021/05/20 14:30:25;;;;;;;6.00;2.35;;;;;;;;;;10305857;28;20059;-70
2021/05/20 14:35:40;;;;;;;5.60;2.45;;;;;;;;;;10302345;28;20131;-70
2021/05/20 14:40:36;;;;;;;4.53;2.33;;;;;;;;;;10298697;28;20074;-70
2021/05/20 14:45:33;;;;;;;4.22;2.38;;;;;;;;;;10297594;28;20060;-70
2021/05/20 14:50:31;;;;;;;5.70;2.53;;;;;;;;;;10303437;28;20048;-67
2021/05/20 14:55:40;;;;;;;7.78;2.58;;;;;;;;;;10303137;28;20079;-67
2021/05/20 15:16:13;;;;;;;5.40;2.42;;;;;;;;;;10305506;28;20044;-70
2021/05/20 15:21:10;;;;;;;3.72;2.00;;;;;;;;;;10294912;28;20548;-70
2021/05/20 15:26:06;;;;;;;5.35;2.65;;;;;;;;;;10302506;28;20449;-69
2021/05/20 15:31:03;;;;;;;4.88;2.10;;;;;;;;;;10291091;28;20041;-69
2021/05/20 15:36:00;;;;;;;5.20;2.15;;;;;;;;;;10307313;28;20134;-70
2021/05/20 15:40:57;;;;;;;5.20;2.58;;;;;;;;;;10301856;28;20056;-69
2021/05/20 15:46:01;;;;;;;5.07;2.55;;;;;;;;;;10304117;28;20068;-69
2021/05/20 15:50:58;;;;;;;6.85;3.28;;;;;;;;;;10303806;28;20082;-70
2021/05/20 15:55:55;;;;;;;6.43;3.20;;;;;;;;;;10310003;28;20085;-70
2021/05/20 16:00:51;;;;;;;6.20;2.53;;;;;;;;;;10301080;28;20078;-70
2021/05/20 16:05:47;;;;;;;4.60;2.10;;;;;;;;;;10293249;28;20056;-70
2021/05/20 16:10:54;;;;;;;4.38;2.00;;;;;;;;;;10305787;28;20414;-70
2021/05/20 16:15:50;;;;;;;5.38;2.50;;;;;;;;;;10296323;28;20399;-70
2021/05/20 16:20:48;;;;;;;5.00;2.20;;;;;;;;;;10302302;28;20101;-70
2021/05/20 16:26:03;;;;;;;5.75;1.70;;;;;;;;;;10299896;28;20044;-70
2021/05/20 16:41:27;;;;;;;4.32;1.92;;;;;;;;;;10301387;28;20052;-70
2021/05/20 16:46:23;;;;;;;6.18;2.33;;;;;;;;;;10307080;28;20052;-70
2021/05/20 16:51:22;;;;;;;3.83;1.73;;;;;;;;;;10309139;28;20078;-69
2021/05/20 16:56:21;;;;;;;4.43;2.63;;;;;;;;;;10302079;28;20048;-69
2021/05/20 17:01:18;;;;;;;5.60;2.50;;;;;;;;;;10301228;28;20052;-70
2021/05/20 17:06:17;;;;;;;4.35;1.75;;;;;;;;;;10306913;28;20041;-70
2021/05/20 17:11:13;;;;;;;5.07;2.10;;;;;;;;;;10304960;28;20051;-70
2021/05/20 17:16:10;;;;;;;7.15;2.60;;;;;;;;;;10288118;28;20082;-70
2021/05/20 17:21:07;;;;;;;5.53;2.17;;;;;;;;;;10306613;28;20041;-70
2021/05/20 17:26:04;;;;;;;4.88;2.00;;;;;;;;;;10304463;28;20498;-70
2021/05/20 17:31:01;;;;;;;6.10;1.80;;;;;;;;;;10300427;28;20118;-70
2021/05/20 17:35:59;;;;;;;7.50;2.80;;;;;;;;;;10300988;28;20068;-70
2021/05/20 17:40:57;;;;;;;7.88;2.42;;;;;;;;;;10302515;28;20455;-70
2021/05/20 17:45:54;;;;;;;6.03;2.80;;;;;;;;;;10302001;28;20048;-69
2021/05/20 17:50:50;;;;;;;5.85;1.70;;;;;;;;;;10302366;28;20041;-69
2021/05/20 17:55:47;;;;;;;5.90;1.92;;;;;;;;;;10299053;28;20456;-70
2021/05/20 18:00:45;;;;;;;3.10;1.60;;;;;;;;;;10301892;28;20467;-69
2021/05/20 18:05:42;;;;;;;5.13;1.75;;;;;;;;;;10300348;28;20053;-69
2021/05/20 18:10:46;;;;;;;5.25;1.73;;;;;;;;;;10296862;28;20068;-71
2021/05/20 18:15:57;;;;;;;5.68;1.90;;;;;;;;;;10294272;28;20045;-71
2021/05/20 18:26:09;;;;;;;3.88;1.85;;;;;;;;;;10294695;28;20040;-70
2021/05/20 18:31:06;;;;;;;2.50;1.30;;;;;;;;;;10287194;28;20040;-70
2021/05/20 18:36:03;;;;;;;3.28;1.40;;;;;;;;;;10287787;28;20125;-71
2021/05/20 18:41:00;;;;;;;5.20;1.70;;;;;;;;;;10288830;28;20080;-71
2021/05/20 18:45:56;;;;;;;4.40;1.67;;;;;;;;;;10293959;28;20044;-71
2021/05/20 18:50:53;;;;;;;3.22;1.33;;;;;;;;;;10285199;28;20103;-71
2021/05/20 18:55:49;;;;;;;4.90;1.55;;;;;;;;;;10295981;28;20083;-70
2021/05/20 19:00:45;;;;;;;3.67;1.50;;;;;;;;;;10293956;28;20041;-71
2021/05/20 19:05:45;;;;;;;4.22;1.60;;;;;;;;;;10291369;28;20048;-70
2021/05/20 19:10:44;;;;;;;5.07;1.70;;;;;;;;;;10306759;28;20456;-70
2021/05/20 19:15:42;;;;;;;5.63;2.35;;;;;;;;;;10306221;28;20079;-70
2021/05/20 19:20:40;;;;;;;5.57;2.88;;;;;;;;;;10305012;28;20633;-70
2021/05/20 19:25:37;;;;;;;7.57;3.10;;;;;;;;;;10299242;28;20138;-70
2021/05/20 19:30:38;;;;;;;6.13;2.90;;;;;;;;;;10296162;28;20060;-71
2021/05/20 19:35:34;;;;;;;9.82;3.65;;;;;;;;;;10297812;28;20072;-70
2021/05/20 19:40:31;;;;;;;8.38;3.85;;;;;;;;;;10302534;28;20040;-70
2021/05/20 19:45:27;;;;;;;9.52;4.03;;;;;;;;;;10296333;28;20060;-70
2021/05/20 19:50:31;;;;;;;8.55;4.47;;;;;;;;;;10300405;28;20044;-70
2021/05/20 19:59:24;;;;;;;8.50;3.40;;;;;;;;;;10304199;28;20636;-66
2021/05/20 20:00:56;;;;;;;7.13;3.63;;;;;;;;;;10304352;28;20468;-65
2021/05/20 20:10:52;;;;;;;6.72;3.22;;;;;;;;;;10297033;28;20464;-66
2021/05/20 20:15:49;;;;;;;8.88;4.28;;;;;;;;;;10302538;28;20101;-67
2021/05/20 20:20:51;;;;;;;7.65;3.72;;;;;;;;;;10302408;28;20078;-67
2021/05/20 20:31:02;;;;;;;7.70;3.72;;;;;;;;;;10297417;28;20067;-68
2021/05/20 20:36:17;;;;;;;6.85;3.80;;;;;;;;;;10305807;28;20072;-68
2021/05/20 20:41:15;;;;;;;7.22;3.70;;;;;;;;;;10309692;28;20037;-68
2021/05/20 20:46:12;;;;;;;6.57;3.65;;;;;;;;;;10305070;28;20076;-68
2021/05/20 20:51:10;;;;;;;6.80;3.88;;;;;;;;;;10304306;28;20091;-69
2021/05/20 20:56:08;;;;;;;5.53;3.30;;;;;;;;;;10305171;28;20044;-68
2021/05/20 21:01:04;;;;;;;6.07;3.40;;;;;;;;;;10307995;28;20121;-69
2021/05/20 21:06:01;;;;;;;5.10;3.05;;;;;;;;;;10301902;28;20079;-68
2021/05/20 21:10:58;;;;;;;6.20;2.92;;;;;;;;;;10290960;28;20466;-68
2021/05/20 21:15:54;;;;;;;6.82;3.40;;;;;;;;;;10302287;28;20071;-68
2021/05/20 21:20:51;;;;;;;7.70;3.10;;;;;;;;;;10301619;28;20041;-68
2021/05/20 21:25:47;;;;;;;5.63;2.85;;;;;;;;;;10310274;28;20085;-68
2021/05/20 21:30:43;;;;;;;5.30;2.92;;;;;;;;;;10302299;28;20109;-68
2021/05/20 21:35:40;;;;;;;5.38;2.65;;;;;;;;;;10298554;28;20068;-68
2021/05/20 21:40:36;;;;;;;6.70;2.78;;;;;;;;;;10296147;28;20056;-67
2021/05/20 21:45:33;;;;;;;5.95;2.83;;;;;;;;;;10300677;28;20418;-67
2021/05/20 21:50:29;;;;;;;6.63;3.03;;;;;;;;;;10303620;28;20060;-67
2021/05/20 21:55:25;;;;;;;6.82;2.33;;;;;;;;;;10292653;28;20095;-67
2021/05/20 22:00:23;;;;;;;3.92;2.25;;;;;;;;;;10299015;28;20114;-67
2021/05/20 22:05:20;;;;;;;4.40;1.98;;;;;;;;;;10300647;28;20037;-67
2021/05/20 22:10:21;;;;;;;6.60;2.30;;;;;;;;;;10299859;28;20398;-67
2021/05/20 22:15:17;;;;;;;8.63;3.00;;;;;;;;;;10300533;28;20045;-67
2021/05/20 22:20:14;;;;;;;8.18;2.97;;;;;;;;;;10295947;28;20114;-68
2021/05/20 22:25:15;;;;;;;5.30;2.80;;;;;;;;;;10299692;28;20048;-68
2021/05/20 22:30:18;;;;;;;5.60;2.80;;;;;;;;;;10298434;28;20059;-67
2021/05/20 22:35:16;;;;;;;6.13;3.50;;;;;;;;;;10291983;28;20048;-68
2021/05/20 22:40:13;;;;;;;6.78;3.80;;;;;;;;;;10297987;28;20072;-67
2021/05/20 22:45:10;;;;;;;6.50;3.88;;;;;;;;;;10303410;28;20486;-68
2021/05/20 22:50:07;;;;;;;6.05;3.38;;;;;;;;;;10291355;28;20045;-68
2021/05/20 22:55:03;;;;;;;8.13;4.10;;;;;;;;;;10298004;28;20045;-67
2021/05/20 23:00:00;;;;;;;6.03;3.33;;;;;;;;;;10300623;28;20098;-68
2021/05/20 23:04:56;;;;;;;11.77;4.43;;;;;;;;;;10291479;28;20055;-68
2021/05/20 23:09:53;;;;;;;9.40;4.57;;;;;;;;;;10284377;28;20482;-67
2021/05/20 23:14:49;;;;;;;8.23;5.38;;;;;;;;;;10287957;28;20118;-69
2021/05/20 23:19:45;;;;;;;8.23;5.30;;;;;;;;;;10292462;28;20072;-69
2021/05/20 23:24:42;;;;;;;10.70;5.47;;;;;;;;;;10303656;28;20110;-69
2021/05/20 23:29:38;;;;;;;11.85;6.78;;;;;;;;;;10294710;28;20501;-67
2021/05/20 23:34:34;;;;;;;9.02;5.90;;;;;;;;;;10296340;28;20044;-68
2021/05/20 23:39:30;;;;;;;8.25;5.93;;;;;;;;;;10292065;28;20075;-67
2021/05/20 23:44:27;;;;;;;9.15;6.13;;;;;;;;;;10299563;28;20044;-68
2021/05/20 23:49:23;;;;;;;9.15;5.20;;;;;;;;;;10301085;28;20040;-67
2021/05/20 23:54:21;;;;;;;11.50;6.55;;;;;;;;;;10300601;28;20040;-67
2021/05/20 23:59:18;;;;;;;9.07;5.35;;;;;;;;;;10303349;28;20091;-67
